createdAt,value
2017-12-05T00:00:20.747Z,16.92
2017-12-05T00:02:48.972Z,18.30
2017-12-05T00:05:16.426Z,18.05
2017-12-05T00:07:43.900Z,17.25
2017-12-05T00:10:12.112Z,20.55
2017-12-05T00:12:39.568Z,19.60
2017-12-05T00:15:07.127Z,20.33
2017-12-05T00:17:34.585Z,19.48
2017-12-05T00:20:02.824Z,20.05
2017-12-05T00:22:30.272Z,20.80
2017-12-05T00:24:57.720Z,19.40
2017-12-05T00:27:25.948Z,20.48
2017-12-05T00:29:53.401Z,19.90
2017-12-05T00:32:20.864Z,21.00
2017-12-05T00:34:49.123Z,20.67
2017-12-05T00:37:16.664Z,21.37
2017-12-05T00:39:44.147Z,21.87
2017-12-05T00:42:11.595Z,22.02
2017-12-05T00:44:39.048Z,20.85
2017-12-05T00:47:06.500Z,19.92
2017-12-05T00:49:34.737Z,23.27
2017-12-05T00:52:02.204Z,22.10
2017-12-05T00:54:29.652Z,21.30
2017-12-05T00:56:57.208Z,23.10
2017-12-05T00:59:24.675Z,22.77
2017-12-05T01:01:52.888Z,23.10
2017-12-05T01:04:20.352Z,24.17
2017-12-05T01:06:47.899Z,25.35
2017-12-05T01:09:16.122Z,24.58
2017-12-05T01:11:44.340Z,25.58
2017-12-05T01:14:12.568Z,25.15
2017-12-05T01:16:40.025Z,23.60
2017-12-05T01:19:08.261Z,25.48
2017-12-05T01:21:35.715Z,21.17
2017-12-05T01:24:03.163Z,26.00
2017-12-05T01:26:31.417Z,26.15
2017-12-05T01:28:58.893Z,24.20
2017-12-05T01:31:26.343Z,24.65
2017-12-05T01:33:53.792Z,26.15
2017-12-05T01:36:21.244Z,25.98
2017-12-05T01:38:48.784Z,24.30
2017-12-05T01:41:16.252Z,26.50
2017-12-05T01:43:43.704Z,27.48
2017-12-05T01:46:11.152Z,30.60
2017-12-05T01:48:38.613Z,28.50
2017-12-05T01:51:06.823Z,30.77
2017-12-05T01:53:34.289Z,28.55
2017-12-05T01:56:01.744Z,28.65
2017-12-05T01:58:29.988Z,30.23
2017-12-05T02:00:57.448Z,32.45
2017-12-05T02:03:25.704Z,32.05
2017-12-05T02:05:53.184Z,30.33
2017-12-05T02:08:20.632Z,31.85
2017-12-05T02:10:48.084Z,31.17
2017-12-05T02:13:15.549Z,31.83
2017-12-05T02:15:42.996Z,31.55
2017-12-05T02:18:10.460Z,29.75
2017-12-05T02:20:38.680Z,31.90
2017-12-05T02:23:06.156Z,28.02
2017-12-05T02:25:34.372Z,29.73
2017-12-05T02:28:02.639Z,30.48
2017-12-05T02:30:30.120Z,28.92
2017-12-05T02:32:58.373Z,29.50
2017-12-05T02:35:25.864Z,25.85
2017-12-05T02:37:53.358Z,28.00
2017-12-05T02:40:20.813Z,26.70
2017-12-05T02:42:49.037Z,29.52
2017-12-05T02:45:16.596Z,30.35
2017-12-05T02:47:44.148Z,28.20
2017-12-05T02:50:11.603Z,28.55
2017-12-05T02:52:39.832Z,29.98
2017-12-05T02:55:07.289Z,29.05
2017-12-05T02:57:34.828Z,25.98
2017-12-05T03:00:03.045Z,28.38
2017-12-05T03:02:30.500Z,26.33
2017-12-05T03:04:57.968Z,30.42
2017-12-05T03:07:25.444Z,28.17
2017-12-05T03:09:52.896Z,28.15
2017-12-05T03:12:20.352Z,27.42
2017-12-05T03:14:47.808Z,28.65
2017-12-05T03:17:15.260Z,24.85
2017-12-05T03:19:42.712Z,28.65
2017-12-05T03:22:10.264Z,29.45
2017-12-05T03:24:37.819Z,31.60
2017-12-05T03:27:06.072Z,32.08
2017-12-05T03:29:33.563Z,32.35
2017-12-05T03:32:01.057Z,32.28
2017-12-05T03:34:29.327Z,32.25
2017-12-05T03:36:57.552Z,33.10
2017-12-05T03:39:25.014Z,33.97
2017-12-05T03:41:52.460Z,32.65
2017-12-05T03:44:20.692Z,35.10
2017-12-05T03:46:48.147Z,37.83
2017-12-05T03:49:15.700Z,35.97
2017-12-05T03:51:43.152Z,37.15
2017-12-05T03:54:11.372Z,37.60
2017-12-05T03:56:38.832Z,39.92
2017-12-05T03:59:06.283Z,39.67
2017-12-05T04:01:33.756Z,37.25
2017-12-05T04:04:01.272Z,39.00
2017-12-05T04:06:29.492Z,40.15
2017-12-05T04:08:56.949Z,38.58
2017-12-05T04:11:24.401Z,37.55
2017-12-05T04:13:51.859Z,38.45
2017-12-05T04:16:19.333Z,36.03
2017-12-05T04:18:46.785Z,39.17
2017-12-05T04:21:14.231Z,39.28
2017-12-05T04:23:41.696Z,38.80
2017-12-05T04:26:09.264Z,41.60
2017-12-05T04:28:36.804Z,39.38
2017-12-05T04:31:04.252Z,38.85
2017-12-05T04:33:32.476Z,41.95
2017-12-05T04:35:59.943Z,42.70
2017-12-05T04:38:27.420Z,44.67
2017-12-05T04:40:54.872Z,42.45
2017-12-05T04:43:22.321Z,44.13
2017-12-05T04:45:49.792Z,41.55
2017-12-05T04:48:17.255Z,41.85
2017-12-05T04:50:44.797Z,40.38
2017-12-05T04:53:12.344Z,41.28
2017-12-05T04:55:39.800Z,39.17
2017-12-05T04:58:08.049Z,43.83
2017-12-05T05:00:36.316Z,40.47
2017-12-05T05:03:04.549Z,40.55
2017-12-05T05:05:32.007Z,39.42
2017-12-05T05:08:00.268Z,40.58
2017-12-05T05:10:27.805Z,40.75
2017-12-05T05:12:55.275Z,40.17
2017-12-05T05:15:22.724Z,40.80
2017-12-05T05:17:50.240Z,37.20
2017-12-05T05:20:17.696Z,37.50
2017-12-05T05:22:45.944Z,38.63
2017-12-05T05:25:14.192Z,41.63
2017-12-05T05:27:41.648Z,38.60
2017-12-05T05:30:09.868Z,42.40
2017-12-05T05:32:37.326Z,41.25
2017-12-05T05:35:04.775Z,38.28
2017-12-05T05:37:32.234Z,43.38
2017-12-05T05:40:00.448Z,40.25
2017-12-05T05:42:27.907Z,41.40
2017-12-05T05:44:55.462Z,42.20
2017-12-05T05:47:23.488Z,36.65
2017-12-05T05:49:50.954Z,41.78
2017-12-05T05:52:18.401Z,42.97
2017-12-05T05:54:45.899Z,39.03
2017-12-05T05:57:13.352Z,41.83
2017-12-05T05:59:40.828Z,42.53
2017-12-05T06:02:09.785Z,42.80
2017-12-05T06:04:37.247Z,39.72
2017-12-05T06:07:04.699Z,43.05
2017-12-05T06:09:32.928Z,41.83
2017-12-05T06:12:00.383Z,46.88
2017-12-05T06:14:27.857Z,41.72
2017-12-05T06:16:56.076Z,42.72
2017-12-05T06:19:23.540Z,46.03
2017-12-05T06:21:51.756Z,40.33
2017-12-05T06:24:19.220Z,42.00
2017-12-05T06:26:46.780Z,42.75
2017-12-05T06:29:14.237Z,42.95
2017-12-05T06:31:42.476Z,39.60
2017-12-05T06:34:09.932Z,41.65
2017-12-05T06:36:38.147Z,43.00
2017-12-05T06:39:05.720Z,38.30
2017-12-05T06:41:33.168Z,39.97
2017-12-05T06:44:01.420Z,42.15
2017-12-05T06:46:28.884Z,40.88
2017-12-05T06:48:57.096Z,41.83
2017-12-05T06:51:24.552Z,41.15
2017-12-05T06:53:52.113Z,42.60
2017-12-05T06:56:19.563Z,39.53
2017-12-05T06:58:47.817Z,40.88
2017-12-05T07:01:15.307Z,41.35
2017-12-05T07:03:42.752Z,41.53
2017-12-05T07:06:10.215Z,41.35
2017-12-05T07:08:37.677Z,40.28
2017-12-05T07:11:05.127Z,35.75
2017-12-05T07:13:33.344Z,41.00
2017-12-05T07:16:00.812Z,40.20
2017-12-05T07:18:28.263Z,40.78
2017-12-05T07:20:56.519Z,43.83
2017-12-05T07:23:23.996Z,41.53
2017-12-05T07:25:51.448Z,42.78
2017-12-05T07:28:18.952Z,42.30
2017-12-05T07:30:46.418Z,44.05
2017-12-05T07:33:13.878Z,44.10
2017-12-05T07:35:41.340Z,44.35
2017-12-05T07:38:08.796Z,42.10
2017-12-05T07:40:36.255Z,41.67
2017-12-05T07:43:03.800Z,43.60
2017-12-05T07:45:31.342Z,42.58
2017-12-05T07:47:58.880Z,43.20
2017-12-05T07:50:26.436Z,45.97
2017-12-05T07:52:53.972Z,46.33
2017-12-05T07:55:21.450Z,44.63
2017-12-05T07:57:48.968Z,42.90
2017-12-05T08:00:16.424Z,43.97
2017-12-05T08:02:44.644Z,42.58
2017-12-05T08:05:12.108Z,42.45
2017-12-05T08:07:40.340Z,43.45
2017-12-05T08:10:07.799Z,41.22
2017-12-05T08:12:35.344Z,44.33
2017-12-05T08:15:02.795Z,41.72
2017-12-05T08:17:31.028Z,41.75
2017-12-05T08:19:58.475Z,42.25
2017-12-05T08:22:25.948Z,40.78
2017-12-05T08:24:54.163Z,42.60
2017-12-05T08:27:21.613Z,40.55
2017-12-05T08:29:49.071Z,41.15
2017-12-05T08:32:16.516Z,40.08
2017-12-05T08:34:44.213Z,38.20
2017-12-05T08:37:11.663Z,41.92
2017-12-05T08:39:39.130Z,38.25
2017-12-05T08:42:06.685Z,39.15
2017-12-05T08:44:34.135Z,42.95
2017-12-05T08:47:02.361Z,40.15
2017-12-05T08:49:30.580Z,39.08
2017-12-05T08:51:58.037Z,37.53
2017-12-05T08:54:25.529Z,43.08
2017-12-05T08:56:53.071Z,40.85
2017-12-05T08:59:20.545Z,37.03
2017-12-05T09:01:48.775Z,39.85
2017-12-05T09:04:16.232Z,43.35
2017-12-05T09:06:44.476Z,33.83
2017-12-05T09:09:12.017Z,40.65
2017-12-05T09:11:39.493Z,40.65
2017-12-05T09:14:06.945Z,40.83
2017-12-05T09:16:34.408Z,40.20
2017-12-05T09:19:01.860Z,38.22
2017-12-05T09:21:29.316Z,39.67
2017-12-05T09:23:56.770Z,39.42
2017-12-05T09:26:24.233Z,39.42
2017-12-05T09:28:52.443Z,37.95
2017-12-05T09:31:20.011Z,39.63
2017-12-05T09:33:47.552Z,39.10
2017-12-05T09:36:15.009Z,39.08
2017-12-05T09:38:43.256Z,41.75
2017-12-05T09:41:10.711Z,38.97
2017-12-05T09:43:38.932Z,40.63
2017-12-05T09:46:06.392Z,38.10
2017-12-05T09:48:33.867Z,38.38
2017-12-05T09:51:01.316Z,38.70
2017-12-05T09:53:28.829Z,39.58
2017-12-05T09:55:56.285Z,40.05
2017-12-05T09:58:24.501Z,40.35
2017-12-05T10:00:52.024Z,38.05
2017-12-05T10:03:19.491Z,39.65
2017-12-05T10:05:46.948Z,38.75
2017-12-05T10:08:14.491Z,39.70
2017-12-05T10:10:41.991Z,38.60
2017-12-05T10:13:09.440Z,36.72
2017-12-05T10:15:36.924Z,39.00
2017-12-05T10:18:04.376Z,39.78
2017-12-05T10:20:32.612Z,38.50
2017-12-05T10:23:00.063Z,38.03
2017-12-05T10:25:27.520Z,38.92
2017-12-05T10:27:55.739Z,36.63
2017-12-05T10:30:23.212Z,39.28
2017-12-05T10:32:50.664Z,39.25
2017-12-05T10:35:18.892Z,37.80
2017-12-05T10:37:46.373Z,38.25
2017-12-05T10:40:14.584Z,35.55
2017-12-05T10:42:42.048Z,37.97
2017-12-05T10:45:09.512Z,42.00
2017-12-05T10:47:37.728Z,40.05
2017-12-05T10:50:05.180Z,35.55
2017-12-05T10:52:32.732Z,34.88
2017-12-05T10:55:00.282Z,38.60
2017-12-05T10:57:27.745Z,36.42
2017-12-05T10:59:55.961Z,38.38
2017-12-05T11:02:23.427Z,38.00
2017-12-05T11:04:51.648Z,39.90
2017-12-05T11:07:19.095Z,35.80
2017-12-05T11:09:46.564Z,35.10
2017-12-05T11:12:14.108Z,37.35
2017-12-05T11:14:41.584Z,36.25
2017-12-05T11:17:09.029Z,38.67
2017-12-05T11:19:36.477Z,37.22
2017-12-05T11:22:03.932Z,39.28
2017-12-05T11:24:31.380Z,38.13
2017-12-05T11:26:58.843Z,37.35
2017-12-05T11:29:26.296Z,38.30
2017-12-05T11:31:53.752Z,35.50
2017-12-05T11:34:21.985Z,37.83
2017-12-05T11:36:49.448Z,37.10
2017-12-05T11:39:16.899Z,37.50
2017-12-05T11:41:45.120Z,33.47
2017-12-05T11:44:12.581Z,37.53
2017-12-05T11:46:40.032Z,34.00
2017-12-05T11:49:08.287Z,36.03
2017-12-05T11:51:35.752Z,36.35
2017-12-05T11:54:03.208Z,34.90
2017-12-05T11:56:30.684Z,35.13
2017-12-05T11:58:58.136Z,33.80
2017-12-05T12:01:25.593Z,34.50
2017-12-05T12:03:53.047Z,35.10
2017-12-05T12:06:21.284Z,33.40
2017-12-05T12:08:48.836Z,30.30
2017-12-05T12:11:16.295Z,33.35
2017-12-05T12:13:44.515Z,30.83
2017-12-05T12:16:11.972Z,31.00
2017-12-05T12:18:39.434Z,31.10
2017-12-05T12:21:07.655Z,30.55
2017-12-05T12:23:35.104Z,28.50
2017-12-05T12:26:02.563Z,29.48
2017-12-05T12:28:30.108Z,26.00
2017-12-05T12:30:57.568Z,27.92
2017-12-05T12:33:25.788Z,27.37
2017-12-05T12:35:53.248Z,28.17
2017-12-05T12:38:20.788Z,27.65
2017-12-05T12:40:48.252Z,27.37
2017-12-05T12:43:16.464Z,24.25
2017-12-05T12:45:43.924Z,25.48
2017-12-05T12:48:11.380Z,24.60
2017-12-05T12:50:39.606Z,25.88
2017-12-05T12:53:07.056Z,25.48
2017-12-05T12:55:34.572Z,27.25
2017-12-05T12:58:02.012Z,25.10
2017-12-05T13:00:29.472Z,25.60
2017-12-05T13:02:57.046Z,22.87
2017-12-05T13:05:24.593Z,26.00
2017-12-05T13:07:52.131Z,22.50
2017-12-05T13:10:19.600Z,22.52
2017-12-05T13:12:47.057Z,24.52
2017-12-05T13:15:14.564Z,24.60
2017-12-05T13:17:42.034Z,22.95
2017-12-05T13:20:09.543Z,24.02
2017-12-05T13:22:37.088Z,24.17
2017-12-05T13:25:04.556Z,23.60
2017-12-05T13:27:32.012Z,22.20
2017-12-05T13:29:59.464Z,21.70
2017-12-05T13:32:26.926Z,21.48
2017-12-05T13:34:54.371Z,21.60
2017-12-05T13:37:21.835Z,22.58
2017-12-05T13:39:49.333Z,21.83
2017-12-05T13:42:16.795Z,21.95
2017-12-05T13:44:44.393Z,21.10
2017-12-05T13:47:11.843Z,22.00
2017-12-05T13:49:39.356Z,24.80
2017-12-05T13:52:07.584Z,22.75
2017-12-05T13:54:35.037Z,23.55
2017-12-05T13:57:02.485Z,20.88
2017-12-05T13:59:29.948Z,22.20
2017-12-05T14:01:58.172Z,22.27
2017-12-05T14:04:25.620Z,19.10
2017-12-05T14:06:53.076Z,21.35
2017-12-05T14:09:20.616Z,20.58
2017-12-05T14:11:48.072Z,21.30
2017-12-05T14:14:16.297Z,21.67
2017-12-05T14:16:43.772Z,21.12
2017-12-05T14:19:11.992Z,21.42
2017-12-05T14:21:39.444Z,21.80
2017-12-05T14:24:06.899Z,19.73
2017-12-05T14:26:34.360Z,20.33
2017-12-05T14:29:02.597Z,21.45
2017-12-05T14:31:30.052Z,21.30
2017-12-05T14:33:58.280Z,20.23
2017-12-05T14:36:25.744Z,20.52
2017-12-05T14:38:53.240Z,19.73
2017-12-05T14:41:20.688Z,20.77
2017-12-05T14:43:48.144Z,20.17
2017-12-05T14:46:15.613Z,20.10
2017-12-05T14:48:43.076Z,20.73
2017-12-05T14:51:11.297Z,20.25
2017-12-05T14:53:38.752Z,20.48
2017-12-05T14:56:06.209Z,21.08
2017-12-05T14:58:34.444Z,20.92
2017-12-05T15:01:01.892Z,21.35
2017-12-05T15:03:29.445Z,21.95
2017-12-05T15:05:57.696Z,20.70
2017-12-05T15:08:25.174Z,21.10
2017-12-05T15:10:53.383Z,20.05
2017-12-05T15:13:20.859Z,19.10
2017-12-05T15:15:49.068Z,19.50
2017-12-05T15:18:16.527Z,16.60
2017-12-05T15:20:44.086Z,20.42
2017-12-05T15:23:11.627Z,19.75
2017-12-05T15:25:39.180Z,21.90
2017-12-05T15:28:07.413Z,19.62
2017-12-05T15:30:34.876Z,21.40
2017-12-05T15:33:02.340Z,18.92
2017-12-05T15:35:30.575Z,20.15
2017-12-05T15:37:58.130Z,18.62
2017-12-05T15:40:26.344Z,18.55
2017-12-05T15:42:53.800Z,20.90
2017-12-05T15:45:21.268Z,21.62
2017-12-05T15:47:48.724Z,19.45
2017-12-05T15:50:16.940Z,17.27
2017-12-05T15:52:44.404Z,19.77
2017-12-05T15:55:11.954Z,19.10
2017-12-05T15:57:39.431Z,18.87
2017-12-05T16:00:06.884Z,19.17
2017-12-05T16:02:34.349Z,18.40
2017-12-05T16:05:01.821Z,19.20
2017-12-05T16:07:29.364Z,19.17
2017-12-05T16:09:56.904Z,20.37
2017-12-05T16:12:24.448Z,19.90
2017-12-05T16:14:51.896Z,20.40
2017-12-05T16:17:20.153Z,17.92
2017-12-05T16:19:47.613Z,20.20
2017-12-05T16:22:15.832Z,21.08
2017-12-05T16:24:43.276Z,20.10
2017-12-05T16:27:10.741Z,19.15
2017-12-05T16:29:38.956Z,19.27
2017-12-05T16:32:06.411Z,19.75
2017-12-05T16:34:33.868Z,19.45
2017-12-05T16:37:01.339Z,20.30
2017-12-05T16:39:29.587Z,18.45
2017-12-05T16:41:57.826Z,19.65
2017-12-05T16:44:25.382Z,17.73
2017-12-05T16:46:53.028Z,18.75
2017-12-05T16:49:20.479Z,17.33
2017-12-05T16:51:48.697Z,18.85
2017-12-05T16:54:16.168Z,20.17
2017-12-05T16:56:43.636Z,17.95
2017-12-05T16:59:11.102Z,17.95
2017-12-05T17:01:38.564Z,18.80
2017-12-05T17:04:06.813Z,19.60
2017-12-05T17:06:34.288Z,20.30
2017-12-05T17:09:01.748Z,19.77
2017-12-05T17:11:30.019Z,21.85
2017-12-05T17:13:58.239Z,22.40
2017-12-05T17:16:25.908Z,18.87
2017-12-05T17:18:53.369Z,20.37
2017-12-05T17:21:21.597Z,20.85
2017-12-05T17:23:49.055Z,20.85
2017-12-05T17:26:17.326Z,20.00
2017-12-05T17:28:45.541Z,19.30
2017-12-05T17:31:12.996Z,21.30
2017-12-05T17:33:40.457Z,18.90
2017-12-05T17:36:08.684Z,18.55
2017-12-05T17:38:36.917Z,19.27
2017-12-05T17:41:04.380Z,18.70
2017-12-05T17:43:31.858Z,18.73
2017-12-05T17:45:59.316Z,21.62
2017-12-05T17:48:26.768Z,18.30
2017-12-05T17:50:54.220Z,19.98
2017-12-05T17:53:21.689Z,20.17
2017-12-05T17:55:49.140Z,19.90
2017-12-05T17:58:16.602Z,18.80
2017-12-05T18:00:44.094Z,19.30
2017-12-05T18:03:11.589Z,18.12
2017-12-05T18:05:39.032Z,20.52
2017-12-05T18:08:07.301Z,19.45
2017-12-05T18:10:35.523Z,19.62
2017-12-05T18:13:03.000Z,20.12
2017-12-05T18:15:31.216Z,19.10
2017-12-05T18:17:58.675Z,18.90
2017-12-05T18:20:26.152Z,19.05
2017-12-05T18:22:54.388Z,17.55
2017-12-05T18:25:21.840Z,18.92
2017-12-05T18:27:50.060Z,18.37
2017-12-05T18:30:17.532Z,18.70
2017-12-05T18:32:45.076Z,18.40
2017-12-05T18:35:12.619Z,17.70
2017-12-05T18:37:40.859Z,17.35
2017-12-05T18:40:08.311Z,18.35
2017-12-05T18:42:35.761Z,18.10
2017-12-05T18:45:03.993Z,18.05
2017-12-05T18:47:31.468Z,19.45
2017-12-05T18:49:59.724Z,17.52
2017-12-05T18:52:27.961Z,17.87
2017-12-05T18:54:55.420Z,16.65
2017-12-05T18:57:23.072Z,16.75
2017-12-05T18:59:50.524Z,17.02
2017-12-05T19:02:18.741Z,18.83
2017-12-05T19:04:46.200Z,17.40
2017-12-05T19:07:13.664Z,16.20
2017-12-05T19:09:41.117Z,18.17
2017-12-05T19:12:09.337Z,20.20
2017-12-05T19:14:36.900Z,18.98
2017-12-05T19:17:04.360Z,19.70
2017-12-05T19:19:32.576Z,19.48
2017-12-05T19:22:00.049Z,18.30
2017-12-05T19:24:28.264Z,18.10
2017-12-05T19:26:55.722Z,17.15
2017-12-05T19:29:23.286Z,18.65
2017-12-05T19:31:50.740Z,18.92
2017-12-05T19:34:18.992Z,19.58
2017-12-05T19:36:47.272Z,17.60
2017-12-05T19:39:15.488Z,18.08
2017-12-05T19:41:42.944Z,18.42
2017-12-05T19:44:10.400Z,18.12
2017-12-05T19:46:38.615Z,18.75
2017-12-05T19:49:06.088Z,18.10
2017-12-05T19:51:33.636Z,18.73
2017-12-05T19:54:01.092Z,20.48
2017-12-05T19:56:29.332Z,17.73
2017-12-05T19:58:56.887Z,17.27
2017-12-05T20:01:25.113Z,16.65
2017-12-05T20:03:52.589Z,17.77
2017-12-05T20:06:20.046Z,18.35
2017-12-05T20:08:48.287Z,16.20
2017-12-05T20:11:16.505Z,18.40
2017-12-05T20:13:43.961Z,18.85
2017-12-05T20:16:11.411Z,17.10
2017-12-05T20:18:38.969Z,16.92
2017-12-05T20:21:06.517Z,18.37
2017-12-05T20:23:34.067Z,17.58
2017-12-05T20:26:02.299Z,16.83
2017-12-05T20:28:29.867Z,17.70
2017-12-05T20:30:57.307Z,16.30
2017-12-05T20:33:25.577Z,17.87
2017-12-05T20:35:53.805Z,19.58
2017-12-05T20:38:21.266Z,17.75
2017-12-05T20:40:48.728Z,17.95
2017-12-05T20:43:16.948Z,18.17
2017-12-05T20:45:45.180Z,18.95
2017-12-05T20:48:12.668Z,17.77
2017-12-05T20:50:40.132Z,17.40
2017-12-05T20:53:07.751Z,16.95
2017-12-05T20:55:35.213Z,14.23
2017-12-05T20:58:03.456Z,15.25
2017-12-05T21:00:31.732Z,16.20
2017-12-05T21:02:59.971Z,16.55
2017-12-05T21:05:27.440Z,16.48
2017-12-05T21:07:54.895Z,15.80
2017-12-05T21:10:22.352Z,15.40
2017-12-05T21:12:52.161Z,16.67
2017-12-05T21:15:19.612Z,15.07
2017-12-05T21:17:47.104Z,16.62
2017-12-05T21:20:14.623Z,13.95
2017-12-05T21:22:42.164Z,14.18
2017-12-05T21:25:09.704Z,14.87
2017-12-05T21:27:37.184Z,14.75
2017-12-05T21:30:04.628Z,15.85
2017-12-05T21:32:32.076Z,15.25
2017-12-05T21:34:59.552Z,13.90
2017-12-05T21:37:27.001Z,14.43
2017-12-05T21:39:54.458Z,14.07
2017-12-05T21:42:22.693Z,14.95
2017-12-05T21:44:50.156Z,13.88
2017-12-05T21:47:17.703Z,16.15
2017-12-05T21:49:45.252Z,14.30
2017-12-05T21:52:13.467Z,15.98
2017-12-05T21:54:40.937Z,13.73
2017-12-05T21:57:08.414Z,13.85
2017-12-05T21:59:36.644Z,15.07
2017-12-05T22:02:04.109Z,15.10
2017-12-05T22:04:32.340Z,15.20
2017-12-05T22:06:59.892Z,13.95
2017-12-05T22:09:27.435Z,13.02
2017-12-05T22:11:55.676Z,13.77
2017-12-05T22:14:23.151Z,14.55
2017-12-05T22:16:51.420Z,16.05
2017-12-05T22:19:19.808Z,16.02
2017-12-05T22:21:47.275Z,14.40
2017-12-05T22:24:14.752Z,16.25
2017-12-05T22:26:42.972Z,14.07
2017-12-05T22:29:10.424Z,15.48
2017-12-05T22:31:37.888Z,13.82
2017-12-05T22:34:05.343Z,15.82
2017-12-05T22:36:33.588Z,13.88
2017-12-05T22:39:01.040Z,15.43
2017-12-05T22:41:29.264Z,15.23
2017-12-05T22:43:56.824Z,15.57
2017-12-05T22:46:24.297Z,16.00
2017-12-05T22:48:52.536Z,15.10
2017-12-05T22:51:19.995Z,15.43
2017-12-05T22:53:48.240Z,13.68
2017-12-05T22:56:16.479Z,13.48
2017-12-05T22:58:43.936Z,15.43
2017-12-05T23:01:11.480Z,14.32
2017-12-05T23:03:38.947Z,15.88
2017-12-05T23:06:07.164Z,16.30
2017-12-05T23:08:34.620Z,16.27
2017-12-05T23:11:02.098Z,15.65
2017-12-05T23:13:29.563Z,15.65
2017-12-05T23:15:57.033Z,16.65
2017-12-05T23:18:24.587Z,14.95
2017-12-05T23:20:52.137Z,15.70
2017-12-05T23:23:19.593Z,16.70
2017-12-05T23:25:47.836Z,15.95
2017-12-05T23:28:15.300Z,15.13
2017-12-05T23:30:43.516Z,16.27
2017-12-05T23:33:10.995Z,15.82
2017-12-05T23:35:39.216Z,17.27
2017-12-05T23:38:06.693Z,15.95
2017-12-05T23:40:34.923Z,16.23
2017-12-05T23:43:02.385Z,16.17
2017-12-05T23:45:30.616Z,16.60
2017-12-05T23:47:58.063Z,15.95
2017-12-05T23:50:25.523Z,16.65
2017-12-05T23:52:52.980Z,16.12
2017-12-05T23:58:11.788Z,16.92
